Time;durP1;ratioP1;P1;durP2;ratioP2;P2;SDS_P1;SDS_P2;PMS_P1;PMS_P2;Temp;Humidity;BMP_temperature;BMP_pressure;BME280_temperature;BME280_humidity;BME280_pressure;Samples;Min_cycle;Max_cycle;Signal;HPM_P1;HPM_P2
2021/06/30 00:00:39;;;;;;;6.13;5.35;;;;;;;;;;5005024;28;20175;-84
2021/06/30 00:03:05;;;;;;;11.02;5.63;;;;;;;;;;5019192;28;20203;-85
2021/06/30 00:05:31;;;;;;;7.53;4.80;;;;;;;;;;5021529;28;20756;-83
2021/06/30 00:07:57;;;;;;;5.95;5.18;;;;;;;;;;5006037;28;20840;-84
2021/06/30 00:10:23;;;;;;;6.65;4.82;;;;;;;;;;5004640;28;20183;-85
2021/06/30 00:12:49;;;;;;;6.75;4.68;;;;;;;;;;5003458;28;20198;-84
2021/06/30 00:15:17;;;;;;;6.78;5.55;;;;;;;;;;5003988;28;20219;-83
2021/06/30 00:17:44;;;;;;;8.00;4.85;;;;;;;;;;5005841;28;20222;-84
2021/06/30 00:20:11;;;;;;;12.90;5.78;;;;;;;;;;5005326;28;20202;-84
2021/06/30 00:22:37;;;;;;;7.80;5.15;;;;;;;;;;5002532;28;20221;-86
2021/06/30 00:25:03;;;;;;;5.22;4.55;;;;;;;;;;5004313;28;20186;-83
2021/06/30 00:27:29;;;;;;;7.35;4.30;;;;;;;;;;5004188;28;20266;-84
2021/06/30 00:29:55;;;;;;;6.73;3.93;;;;;;;;;;5004647;28;20183;-83
2021/06/30 00:32:22;;;;;;;7.57;5.38;;;;;;;;;;5022700;28;20537;-85
2021/06/30 00:34:47;;;;;;;5.90;4.55;;;;;;;;;;5019264;28;20218;-86
2021/06/30 00:37:13;;;;;;;6.93;4.60;;;;;;;;;;5019322;28;20233;-85
2021/06/30 00:39:39;;;;;;;10.37;4.90;;;;;;;;;;5003339;28;20436;-85
2021/06/30 00:42:06;;;;;;;10.20;4.33;;;;;;;;;;5020065;28;20473;-82
2021/06/30 00:44:33;;;;;;;9.45;5.15;;;;;;;;;;5021248;28;20448;-82
2021/06/30 00:46:59;;;;;;;7.07;4.78;;;;;;;;;;5003110;28;20186;-83
2021/06/30 00:49:25;;;;;;;5.82;5.22;;;;;;;;;;5002285;28;20183;-82
2021/06/30 00:51:51;;;;;;;9.77;5.37;;;;;;;;;;5002469;28;20195;-83
2021/06/30 00:54:17;;;;;;;5.77;4.33;;;;;;;;;;5002679;28;20434;-83
2021/06/30 00:56:44;;;;;;;5.90;4.03;;;;;;;;;;5004754;28;20434;-82
2021/06/30 00:59:11;;;;;;;6.68;5.25;;;;;;;;;;5004924;28;20635;-84
2021/06/30 01:01:37;;;;;;;6.78;5.18;;;;;;;;;;5003280;28;20183;-84
2021/06/30 01:04:04;;;;;;;7.22;5.88;;;;;;;;;;5016838;28;20176;-83
2021/06/30 01:06:30;;;;;;;7.15;4.40;;;;;;;;;;5015449;28;20187;-82
2021/06/30 01:08:56;;;;;;;8.73;5.55;;;;;;;;;;5018188;28;20194;-83
2021/06/30 01:11:22;;;;;;;10.07;5.63;;;;;;;;;;5022148;28;20183;-83
2021/06/30 01:13:48;;;;;;;11.55;6.38;;;;;;;;;;5000285;28;20190;-83
2021/06/30 01:16:15;;;;;;;10.25;6.10;;;;;;;;;;5001875;28;20305;-84
2021/06/30 01:18:41;;;;;;;10.68;6.88;;;;;;;;;;5001743;28;20191;-85
2021/06/30 01:21:09;;;;;;;11.40;6.72;;;;;;;;;;5017783;28;20231;-83
2021/06/30 01:23:35;;;;;;;12.32;6.75;;;;;;;;;;5013807;28;20596;-82
2021/06/30 01:26:01;;;;;;;14.80;7.90;;;;;;;;;;5004643;28;20243;-83
2021/06/30 01:28:28;;;;;;;17.67;7.30;;;;;;;;;;5001484;28;20210;-83
2021/06/30 01:30:54;;;;;;;14.68;7.10;;;;;;;;;;5017422;28;20656;-84
2021/06/30 01:33:21;;;;;;;9.25;6.95;;;;;;;;;;5013169;28;20186;-83
2021/06/30 01:35:47;;;;;;;18.10;7.75;;;;;;;;;;5018175;28;20183;-85
2021/06/30 01:38:13;;;;;;;15.57;8.05;;;;;;;;;;5004135;28;20179;-82
2021/06/30 01:40:40;;;;;;;14.98;7.00;;;;;;;;;;5001699;28;20182;-82
2021/06/30 01:43:07;;;;;;;13.65;7.45;;;;;;;;;;5003134;28;20438;-83
2021/06/30 01:45:33;;;;;;;9.55;7.90;;;;;;;;;;5002053;28;20664;-82
2021/06/30 01:47:59;;;;;;;11.05;8.15;;;;;;;;;;5011030;28;20171;-83
2021/06/30 01:50:25;;;;;;;13.55;7.72;;;;;;;;;;5020494;28;20179;-83
2021/06/30 01:52:51;;;;;;;11.83;7.00;;;;;;;;;;5003329;28;20185;-84
2021/06/30 01:55:17;;;;;;;12.60;6.95;;;;;;;;;;5002165;28;20438;-84
2021/06/30 01:57:47;;;;;;;10.43;6.93;;;;;;;;;;5000226;28;20617;-83
2021/06/30 02:00:15;;;;;;;11.15;6.15;;;;;;;;;;5016896;28;20191;-82
2021/06/30 02:02:41;;;;;;;6.72;6.03;;;;;;;;;;5018650;28;20203;-84
2021/06/30 02:05:09;;;;;;;8.82;6.85;;;;;;;;;;5002905;28;20179;-83
2021/06/30 02:07:35;;;;;;;13.45;6.90;;;;;;;;;;5016760;28;20254;-83
2021/06/30 02:10:01;;;;;;;9.77;5.97;;;;;;;;;;5001854;28;20698;-84
2021/06/30 02:12:27;;;;;;;8.90;6.40;;;;;;;;;;5012401;28;20674;-82
2021/06/30 02:14:53;;;;;;;17.48;8.25;;;;;;;;;;5001022;28;20290;-82
2021/06/30 02:17:19;;;;;;;11.83;6.70;;;;;;;;;;5000732;28;20197;-84
2021/06/30 02:19:48;;;;;;;14.88;6.95;;;;;;;;;;5002490;28;20525;-82
2021/06/30 02:22:15;;;;;;;9.57;6.43;;;;;;;;;;5004298;28;20209;-83
2021/06/30 02:24:41;;;;;;;16.15;7.68;;;;;;;;;;5000219;28;20185;-81
2021/06/30 02:27:07;;;;;;;14.82;8.38;;;;;;;;;;5001244;28;20265;-82
2021/06/30 02:29:33;;;;;;;9.37;6.80;;;;;;;;;;5003974;28;20271;-81
2021/06/30 02:31:59;;;;;;;11.50;6.30;;;;;;;;;;5001844;28;20426;-84
2021/06/30 02:34:25;;;;;;;12.15;8.15;;;;;;;;;;4998417;28;20488;-81
2021/06/30 02:36:51;;;;;;;13.13;7.20;;;;;;;;;;5015377;28;20187;-81
2021/06/30 02:39:17;;;;;;;14.77;8.07;;;;;;;;;;5013173;28;20190;-82
2021/06/30 02:41:43;;;;;;;8.65;6.97;;;;;;;;;;5018083;28;20449;-81
2021/06/30 02:44:09;;;;;;;11.60;8.15;;;;;;;;;;5004434;28;20185;-82
2021/06/30 02:46:35;;;;;;;11.55;7.07;;;;;;;;;;5016102;28;20189;-81
2021/06/30 02:49:01;;;;;;;15.73;7.45;;;;;;;;;;5000625;28;20187;-81
2021/06/30 02:51:27;;;;;;;16.77;7.53;;;;;;;;;;5001405;28;20183;-81
2021/06/30 02:53:53;;;;;;;16.40;7.37;;;;;;;;;;5016344;28;20191;-81
2021/06/30 02:56:22;;;;;;;11.30;6.90;;;;;;;;;;5016022;28;20429;-81
2021/06/30 02:58:49;;;;;;;13.38;7.00;;;;;;;;;;5016079;28;20433;-81
2021/06/30 03:01:15;;;;;;;10.80;6.78;;;;;;;;;;5000035;28;20186;-81
2021/06/30 03:03:41;;;;;;;11.05;6.78;;;;;;;;;;5002283;28;20210;-81
2021/06/30 03:06:07;;;;;;;11.43;6.22;;;;;;;;;;5016098;28;20210;-81
2021/06/30 03:08:33;;;;;;;10.57;7.40;;;;;;;;;;5018645;28;20214;-81
2021/06/30 03:10:59;;;;;;;11.40;7.80;;;;;;;;;;5001654;28;20516;-80
2021/06/30 03:13:25;;;;;;;11.97;6.70;;;;;;;;;;4998793;28;20483;-81
2021/06/30 03:15:51;;;;;;;11.98;6.72;;;;;;;;;;4999054;28;20534;-80
2021/06/30 03:18:18;;;;;;;10.95;6.25;;;;;;;;;;5001504;28;20192;-80
2021/06/30 03:20:44;;;;;;;10.25;5.57;;;;;;;;;;5002380;28;20191;-81
2021/06/30 03:23:10;;;;;;;10.85;6.13;;;;;;;;;;5002197;28;20226;-79
2021/06/30 03:25:36;;;;;;;9.57;6.13;;;;;;;;;;4999623;28;20650;-81
2021/06/30 03:28:03;;;;;;;12.15;5.88;;;;;;;;;;4998341;28;20198;-80
2021/06/30 03:30:31;;;;;;;11.05;6.25;;;;;;;;;;5000858;28;20208;-80
2021/06/30 03:32:57;;;;;;;8.82;6.10;;;;;;;;;;5001088;28;20213;-80
2021/06/30 03:35:23;;;;;;;11.90;6.78;;;;;;;;;;5019547;28;20702;-80
2021/06/30 03:37:49;;;;;;;6.00;5.30;;;;;;;;;;5000776;28;20256;-80
2021/06/30 03:40:15;;;;;;;9.97;6.30;;;;;;;;;;5000363;28;20193;-80
2021/06/30 03:42:41;;;;;;;9.52;6.60;;;;;;;;;;5014676;28;20535;-80
2021/06/30 03:45:08;;;;;;;9.77;6.50;;;;;;;;;;5000675;28;20666;-80
2021/06/30 03:47:34;;;;;;;9.95;6.43;;;;;;;;;;5016830;28;20187;-79
2021/06/30 03:50:00;;;;;;;9.52;7.07;;;;;;;;;;5002387;28;20189;-80
2021/06/30 03:52:26;;;;;;;14.10;6.20;;;;;;;;;;4999468;28;20197;-80
2021/06/30 03:54:55;;;;;;;9.23;6.20;;;;;;;;;;4999089;28;20185;-79
2021/06/30 03:57:21;;;;;;;8.68;6.50;;;;;;;;;;4998758;28;20182;-80
2021/06/30 03:59:47;;;;;;;9.10;5.80;;;;;;;;;;5002049;28;20211;-80
2021/06/30 04:02:13;;;;;;;9.07;6.20;;;;;;;;;;5002178;28;20236;-79
2021/06/30 04:04:39;;;;;;;12.35;6.65;;;;;;;;;;5000360;28;20208;-80
2021/06/30 04:07:05;;;;;;;11.85;6.45;;;;;;;;;;5015376;28;20189;-80
2021/06/30 04:09:32;;;;;;;8.57;5.80;;;;;;;;;;4998601;28;20183;-80
2021/06/30 04:11:58;;;;;;;10.98;6.35;;;;;;;;;;5010060;28;20442;-80
2021/06/30 04:14:24;;;;;;;7.45;5.60;;;;;;;;;;5018247;28;20596;-80
2021/06/30 04:16:50;;;;;;;8.50;5.75;;;;;;;;;;4996021;28;20237;-79
2021/06/30 04:19:16;;;;;;;14.80;5.80;;;;;;;;;;5011119;28;20281;-80
2021/06/30 04:21:42;;;;;;;8.80;6.40;;;;;;;;;;5000192;28;20193;-79
2021/06/30 04:24:08;;;;;;;8.63;5.43;;;;;;;;;;5000129;28;20187;-79
2021/06/30 04:26:35;;;;;;;9.00;5.82;;;;;;;;;;5001926;28;20485;-79
2021/06/30 04:29:02;;;;;;;8.88;6.07;;;;;;;;;;5003479;28;20197;-80
2021/06/30 04:31:28;;;;;;;7.45;5.50;;;;;;;;;;5000705;28;20191;-80
2021/06/30 04:33:54;;;;;;;8.20;5.43;;;;;;;;;;5000536;28;20190;-79
2021/06/30 04:36:20;;;;;;;10.10;5.10;;;;;;;;;;5014777;28;20437;-80
2021/06/30 04:38:46;;;;;;;7.23;5.17;;;;;;;;;;5017383;28;20189;-80
2021/06/30 04:41:12;;;;;;;9.00;5.20;;;;;;;;;;5006406;28;20444;-79
2021/06/30 04:43:39;;;;;;;8.23;5.40;;;;;;;;;;5017480;28;20639;-79
2021/06/30 04:46:05;;;;;;;8.57;4.88;;;;;;;;;;5018310;28;20185;-80
2021/06/30 04:48:32;;;;;;;6.63;4.90;;;;;;;;;;5003426;28;20179;-80
2021/06/30 04:50:58;;;;;;;7.13;4.97;;;;;;;;;;5014297;28;20745;-80
2021/06/30 04:53:24;;;;;;;12.23;5.80;;;;;;;;;;5022215;28;20178;-80
2021/06/30 04:55:50;;;;;;;8.60;5.07;;;;;;;;;;5002434;28;20425;-80
2021/06/30 04:58:17;;;;;;;7.15;5.45;;;;;;;;;;5002132;28;20441;-80
2021/06/30 05:00:43;;;;;;;9.43;5.28;;;;;;;;;;5001837;28;20186;-80
2021/06/30 05:03:09;;;;;;;9.10;5.47;;;;;;;;;;5003739;28;20215;-80
2021/06/30 05:05:36;;;;;;;6.43;5.00;;;;;;;;;;5020966;28;20198;-80
2021/06/30 05:08:02;;;;;;;6.40;4.97;;;;;;;;;;5003445;28;20450;-81
2021/06/30 05:10:28;;;;;;;6.40;5.70;;;;;;;;;;5001899;28;20177;-80
2021/06/30 05:12:55;;;;;;;10.35;5.95;;;;;;;;;;5019659;28;20186;-81
2021/06/30 05:15:22;;;;;;;7.00;5.55;;;;;;;;;;5017447;28;20295;-81
2021/06/30 05:17:49;;;;;;;7.80;5.50;;;;;;;;;;4998689;28;20219;-81
2021/06/30 05:20:15;;;;;;;7.90;5.10;;;;;;;;;;5006377;28;20186;-82
2021/06/30 05:22:41;;;;;;;6.85;4.32;;;;;;;;;;5001497;28;20571;-81
2021/06/30 05:25:07;;;;;;;8.20;5.25;;;;;;;;;;5001350;28;20190;-82
2021/06/30 05:27:33;;;;;;;8.45;5.95;;;;;;;;;;5017308;28;20186;-81
2021/06/30 05:29:59;;;;;;;9.25;5.35;;;;;;;;;;5003067;28;20172;-81
2021/06/30 05:32:25;;;;;;;6.13;5.53;;;;;;;;;;5012773;28;20179;-82
2021/06/30 05:34:51;;;;;;;7.03;4.80;;;;;;;;;;5003795;28;20428;-80
2021/06/30 05:37:17;;;;;;;10.43;5.73;;;;;;;;;;5000385;28;20704;-81
2021/06/30 05:39:43;;;;;;;7.47;4.82;;;;;;;;;;5003808;28;20836;-82
2021/06/30 05:42:10;;;;;;;8.83;5.20;;;;;;;;;;5005220;28;20204;-83
2021/06/30 05:44:37;;;;;;;15.70;5.70;;;;;;;;;;5012630;28;20438;-82
2021/06/30 05:47:03;;;;;;;7.00;6.03;;;;;;;;;;5019337;28;20212;-82
2021/06/30 05:49:29;;;;;;;9.15;5.63;;;;;;;;;;5005527;28;20190;-82
2021/06/30 05:51:55;;;;;;;10.60;5.50;;;;;;;;;;5002014;28;20189;-81
2021/06/30 05:54:21;;;;;;;8.97;5.23;;;;;;;;;;4999773;28;20210;-82
2021/06/30 05:56:48;;;;;;;10.68;6.45;;;;;;;;;;5001091;28;20460;-81
2021/06/30 05:59:13;;;;;;;9.65;5.50;;;;;;;;;;5004480;28;20185;-82
2021/06/30 06:01:40;;;;;;;10.13;5.50;;;;;;;;;;5002848;28;20229;-81
2021/06/30 06:04:06;;;;;;;8.15;5.93;;;;;;;;;;5001967;28;20444;-81
2021/06/30 06:06:32;;;;;;;12.27;6.40;;;;;;;;;;5013963;28;20196;-81
2021/06/30 06:08:58;;;;;;;8.75;6.10;;;;;;;;;;5014697;28;20265;-82
2021/06/30 06:11:24;;;;;;;9.05;6.15;;;;;;;;;;5002955;28;20185;-82
2021/06/30 06:13:50;;;;;;;10.80;6.30;;;;;;;;;;5016332;28;20193;-81
2021/06/30 06:16:19;;;;;;;12.70;7.03;;;;;;;;;;5011157;28;20227;-83
2021/06/30 06:18:46;;;;;;;9.73;5.35;;;;;;;;;;5002305;28;20667;-82
2021/06/30 06:21:12;;;;;;;7.10;5.60;;;;;;;;;;5015890;28;20182;-82
2021/06/30 06:23:38;;;;;;;7.57;5.90;;;;;;;;;;5014108;28;20213;-82
2021/06/30 06:26:04;;;;;;;10.55;6.45;;;;;;;;;;5003422;28;20422;-82
2021/06/30 06:28:32;;;;;;;9.98;6.53;;;;;;;;;;5002007;28;20191;-81
2021/06/30 06:31:01;;;;;;;10.40;7.05;;;;;;;;;;5001846;28;20182;-80
2021/06/30 06:33:27;;;;;;;9.73;5.05;;;;;;;;;;5000692;28;20187;-80
2021/06/30 06:35:53;;;;;;;12.40;5.60;;;;;;;;;;5018942;28;20222;-80
2021/06/30 06:38:19;;;;;;;13.45;5.78;;;;;;;;;;5004881;28;20444;-80
2021/06/30 06:40:45;;;;;;;13.98;5.63;;;;;;;;;;5018660;28;20211;-81
2021/06/30 06:43:12;;;;;;;9.65;5.35;;;;;;;;;;5002245;28;20207;-80
2021/06/30 06:45:38;;;;;;;10.48;6.47;;;;;;;;;;5011000;28;20183;-80
2021/06/30 06:48:05;;;;;;;8.85;6.10;;;;;;;;;;5005405;28;20255;-80
2021/06/30 06:50:31;;;;;;;8.23;5.35;;;;;;;;;;5018771;28;20173;-80
2021/06/30 06:52:57;;;;;;;16.55;6.30;;;;;;;;;;4997950;28;20193;-79
2021/06/30 06:55:24;;;;;;;8.25;5.90;;;;;;;;;;5011046;28;20182;-79
2021/06/30 06:57:50;;;;;;;9.35;5.80;;;;;;;;;;4994783;28;20278;-78
2021/06/30 07:00:16;;;;;;;6.22;5.28;;;;;;;;;;5001184;28;20239;-79
2021/06/30 07:02:42;;;;;;;7.30;4.80;;;;;;;;;;5009053;28;20232;-79
2021/06/30 07:05:08;;;;;;;5.93;4.57;;;;;;;;;;5002000;28;20189;-80
2021/06/30 07:07:41;;;;;;;8.93;4.72;;;;;;;;;;5014657;28;20441;-78
2021/06/30 07:10:07;;;;;;;4.60;3.78;;;;;;;;;;5014868;28;20188;-79
2021/06/30 07:12:33;;;;;;;5.57;4.53;;;;;;;;;;5000602;28;20200;-80
2021/06/30 07:15:01;;;;;;;4.95;3.90;;;;;;;;;;5002246;28;20250;-80
2021/06/30 07:17:27;;;;;;;9.32;4.55;;;;;;;;;;5015052;28;20236;-80
2021/06/30 07:19:53;;;;;;;5.40;4.30;;;;;;;;;;5002132;28;20218;-80
2021/06/30 07:22:19;;;;;;;7.60;4.28;;;;;;;;;;5000201;28;20209;-80
2021/06/30 07:24:45;;;;;;;5.20;4.27;;;;;;;;;;5003325;28;20189;-79
2021/06/30 07:27:12;;;;;;;10.32;4.93;;;;;;;;;;5002010;28;20452;-80
2021/06/30 07:29:38;;;;;;;9.43;4.78;;;;;;;;;;5003762;28;20960;-78
2021/06/30 07:32:04;;;;;;;6.97;4.53;;;;;;;;;;5002259;28;20230;-78
2021/06/30 07:34:30;;;;;;;7.50;5.15;;;;;;;;;;5009880;28;20647;-78
2021/06/30 07:36:56;;;;;;;7.47;4.83;;;;;;;;;;5014962;28;20186;-78
2021/06/30 07:39:24;;;;;;;5.70;4.43;;;;;;;;;;5007831;28;20440;-78
2021/06/30 07:41:50;;;;;;;5.50;4.65;;;;;;;;;;5012646;28;20187;-78
2021/06/30 07:44:16;;;;;;;6.15;4.57;;;;;;;;;;5000635;28;20188;-78
2021/06/30 07:46:43;;;;;;;7.07;4.40;;;;;;;;;;4998161;28;20214;-79
2021/06/30 07:49:09;;;;;;;7.97;4.60;;;;;;;;;;5001380;28;20475;-80
2021/06/30 07:51:35;;;;;;;5.97;5.37;;;;;;;;;;4999025;28;20185;-80
2021/06/30 07:54:01;;;;;;;7.15;5.18;;;;;;;;;;5001000;28;20919;-78
2021/06/30 07:56:36;;;;;;;5.37;4.87;;;;;;;;;;5002665;28;20183;-78
2021/06/30 07:59:03;;;;;;;6.45;5.07;;;;;;;;;;4996123;28;20418;-79
2021/06/30 08:01:29;;;;;;;6.28;4.32;;;;;;;;;;4997506;28;20179;-79
2021/06/30 08:03:55;;;;;;;13.27;4.72;;;;;;;;;;5001658;28;20202;-79
2021/06/30 08:06:21;;;;;;;6.40;4.70;;;;;;;;;;5001325;28;20221;-79
2021/06/30 08:08:47;;;;;;;6.10;5.40;;;;;;;;;;5014834;28;20198;-79
2021/06/30 08:11:13;;;;;;;6.00;4.70;;;;;;;;;;5002258;28;20434;-79
2021/06/30 08:13:39;;;;;;;12.18;5.35;;;;;;;;;;4999694;28;20204;-79
2021/06/30 08:16:05;;;;;;;6.78;5.25;;;;;;;;;;5001985;28;20255;-81
2021/06/30 08:18:31;;;;;;;6.75;5.00;;;;;;;;;;5019656;28;20197;-78
2021/06/30 08:20:57;;;;;;;8.45;4.90;;;;;;;;;;5019793;28;20729;-80
2021/06/30 08:23:23;;;;;;;6.10;4.83;;;;;;;;;;5019404;28;20245;-80
2021/06/30 08:25:49;;;;;;;7.60;5.17;;;;;;;;;;5016029;28;20425;-78
2021/06/30 08:28:22;;;;;;;6.32;5.35;;;;;;;;;;5017730;28;20495;-78
2021/06/30 08:30:48;;;;;;;8.07;5.43;;;;;;;;;;5002746;28;20832;-78
2021/06/30 08:33:14;;;;;;;7.13;5.77;;;;;;;;;;5017521;28;20524;-78
2021/06/30 08:35:40;;;;;;;9.23;5.50;;;;;;;;;;5003814;28;20430;-78
2021/06/30 08:38:06;;;;;;;7.60;4.93;;;;;;;;;;5006689;28;20186;-78
2021/06/30 08:40:32;;;;;;;9.30;5.45;;;;;;;;;;5003041;28;20434;-78
2021/06/30 08:42:59;;;;;;;12.43;6.32;;;;;;;;;;5016454;28;20194;-80
2021/06/30 08:45:25;;;;;;;10.25;6.32;;;;;;;;;;5002756;28;20648;-79
2021/06/30 08:47:55;;;;;;;6.45;5.85;;;;;;;;;;5002963;28;20193;-78
2021/06/30 08:50:21;;;;;;;6.95;6.18;;;;;;;;;;5002853;28;20182;-78
2021/06/30 08:52:48;;;;;;;12.68;6.05;;;;;;;;;;5000199;28;20250;-79
2021/06/30 08:55:18;;;;;;;9.63;6.15;;;;;;;;;;5001766;28;20190;-78
2021/06/30 08:57:48;;;;;;;5.97;5.38;;;;;;;;;;5002461;28;20218;-78
2021/06/30 09:00:15;;;;;;;7.28;5.68;;;;;;;;;;5003061;28;20200;-79
2021/06/30 09:02:46;;;;;;;9.23;5.95;;;;;;;;;;5004638;28;20211;-80
2021/06/30 09:07:50;;;;;;;10.35;5.40;;;;;;;;;;5003633;28;20252;-79
2021/06/30 09:10:35;;;;;;;6.00;5.18;;;;;;;;;;5003110;28;20186;-80
2021/06/30 09:13:01;;;;;;;5.88;5.32;;;;;;;;;;5000894;28;20183;-79
2021/06/30 09:15:35;;;;;;;7.07;5.40;;;;;;;;;;5018386;28;20227;-79
2021/06/30 09:18:18;;;;;;;5.40;4.90;;;;;;;;;;5002015;28;20250;-80
2021/06/30 09:20:44;;;;;;;5.53;5.00;;;;;;;;;;5019709;28;20602;-79
2021/06/30 09:23:11;;;;;;;7.68;5.38;;;;;;;;;;5005116;28;20234;-79
2021/06/30 09:25:40;;;;;;;6.72;5.63;;;;;;;;;;5001388;28;20199;-79
2021/06/30 09:28:13;;;;;;;7.70;5.50;;;;;;;;;;5001797;28;20179;-80
2021/06/30 09:30:54;;;;;;;5.97;5.40;;;;;;;;;;5009739;28;20175;-79
2021/06/30 09:33:20;;;;;;;6.78;5.60;;;;;;;;;;5014191;28;20191;-79
2021/06/30 09:35:48;;;;;;;6.80;6.10;;;;;;;;;;5019342;28;20202;-80
2021/06/30 09:38:34;;;;;;;5.28;4.40;;;;;;;;;;5002778;28;20202;-80
2021/06/30 09:41:01;;;;;;;6.82;4.88;;;;;;;;;;5017697;28;20183;-80
2021/06/30 09:43:29;;;;;;;5.40;4.90;;;;;;;;;;5013610;28;20241;-80
2021/06/30 09:45:56;;;;;;;4.97;4.40;;;;;;;;;;4997744;28;20526;-80
2021/06/30 09:48:28;;;;;;;7.75;4.93;;;;;;;;;;5000306;28;20183;-80
2021/06/30 09:50:54;;;;;;;7.45;4.50;;;;;;;;;;5014460;28;20183;-81
2021/06/30 09:53:37;;;;;;;6.10;5.60;;;;;;;;;;5005194;28;20191;-79
2021/06/30 09:56:09;;;;;;;5.30;4.82;;;;;;;;;;5001701;28;20186;-80
2021/06/30 09:58:35;;;;;;;5.38;4.53;;;;;;;;;;5015825;28;20195;-81
2021/06/30 10:01:20;;;;;;;6.55;4.78;;;;;;;;;;5002128;28;20185;-81
2021/06/30 10:03:47;;;;;;;5.65;5.05;;;;;;;;;;5016472;28;20242;-81
2021/06/30 10:06:30;;;;;;;5.55;5.05;;;;;;;;;;5020381;28;20179;-81
2021/06/30 10:08:57;;;;;;;7.18;4.85;;;;;;;;;;4996590;28;20603;-81
2021/06/30 10:11:24;;;;;;;5.40;4.90;;;;;;;;;;5005765;28;20179;-81
2021/06/30 10:13:50;;;;;;;6.88;4.82;;;;;;;;;;5001528;28;20194;-82
2021/06/30 10:16:20;;;;;;;8.10;5.53;;;;;;;;;;5016781;28;20218;-86
2021/06/30 10:18:48;;;;;;;5.53;5.10;;;;;;;;;;5000503;28;20188;-86
2021/06/30 10:21:16;;;;;;;5.28;4.78;;;;;;;;;;5001731;28;20661;-85
2021/06/30 10:23:42;;;;;;;8.38;5.45;;;;;;;;;;5012517;28;20225;-86
2021/06/30 10:26:08;;;;;;;6.00;5.47;;;;;;;;;;5002669;28;20163;-84
2021/06/30 10:28:34;;;;;;;8.00;6.03;;;;;;;;;;5000771;28;20187;-84
2021/06/30 10:31:00;;;;;;;6.35;5.35;;;;;;;;;;5002521;28;20623;-84
2021/06/30 10:33:31;;;;;;;5.40;4.90;;;;;;;;;;5001982;28;20186;-84
2021/06/30 10:35:57;;;;;;;7.10;5.60;;;;;;;;;;5007820;28;20211;-87
2021/06/30 10:38:23;;;;;;;7.93;5.70;;;;;;;;;;5020173;28;20191;-85
2021/06/30 10:40:49;;;;;;;7.95;5.72;;;;;;;;;;5012027;28;20210;-86
2021/06/30 10:43:15;;;;;;;7.55;5.55;;;;;;;;;;5017332;28;20206;-84
2021/06/30 10:45:42;;;;;;;5.90;5.30;;;;;;;;;;5015420;28;20205;-85
2021/06/30 10:48:13;;;;;;;7.50;6.20;;;;;;;;;;5002067;28;20180;-85
2021/06/30 10:50:44;;;;;;;6.78;6.10;;;;;;;;;;5017008;28;20172;-85
2021/06/30 10:53:11;;;;;;;7.72;6.25;;;;;;;;;;5010862;28;20746;-85
2021/06/30 10:55:39;;;;;;;7.95;7.15;;;;;;;;;;5003119;28;20187;-85
2021/06/30 10:58:14;;;;;;;8.07;7.15;;;;;;;;;;4999101;28;20183;-86
2021/06/30 11:00:40;;;;;;;7.05;6.35;;;;;;;;;;5017952;28;20540;-86
2021/06/30 11:03:25;;;;;;;7.43;6.70;;;;;;;;;;5015541;28;20200;-85
2021/06/30 11:05:56;;;;;;;7.50;6.68;;;;;;;;;;5002595;28;20461;-85
2021/06/30 11:08:37;;;;;;;8.80;6.85;;;;;;;;;;5003736;28;20183;-84
2021/06/30 11:11:03;;;;;;;7.93;6.85;;;;;;;;;;5007777;28;20206;-86
2021/06/30 11:13:48;;;;;;;7.37;6.67;;;;;;;;;;4997237;28;20194;-85
2021/06/30 11:16:34;;;;;;;7.53;6.90;;;;;;;;;;5000464;28;20469;-87
2021/06/30 11:19:00;;;;;;;5.75;5.25;;;;;;;;;;4996251;28;20526;-88
2021/06/30 11:21:45;;;;;;;7.07;6.38;;;;;;;;;;5013930;28;20274;-84
2021/06/30 11:24:30;;;;;;;6.53;5.88;;;;;;;;;;4998846;28;20219;-85
2021/06/30 11:26:56;;;;;;;6.22;5.70;;;;;;;;;;5010299;28;20187;-85
2021/06/30 11:29:51;;;;;;;8.23;6.50;;;;;;;;;;5019241;28;20631;-86
2021/06/30 11:34:59;;;;;;;6.68;5.90;;;;;;;;;;4999481;28;20191;-84
2021/06/30 11:37:26;;;;;;;7.60;6.45;;;;;;;;;;4997960;28;20210;-86
2021/06/30 11:39:54;;;;;;;6.18;5.68;;;;;;;;;;4993976;28;20187;-86
2021/06/30 11:42:30;;;;;;;6.82;6.13;;;;;;;;;;4997764;28;20206;-85
2021/06/30 11:44:56;;;;;;;6.90;6.20;;;;;;;;;;4993392;28;20187;-86
2021/06/30 11:47:22;;;;;;;6.15;5.60;;;;;;;;;;4986157;28;20183;-86
2021/06/30 11:49:48;;;;;;;6.25;5.57;;;;;;;;;;4981051;28;20194;-87
2021/06/30 11:52:15;;;;;;;6.97;6.37;;;;;;;;;;4998027;28;20202;-87
2021/06/30 11:54:41;;;;;;;7.25;5.78;;;;;;;;;;4997947;28;20482;-85
2021/06/30 11:57:07;;;;;;;7.53;6.40;;;;;;;;;;4985006;28;20290;-86
2021/06/30 11:59:36;;;;;;;8.02;5.85;;;;;;;;;;4983350;28;20267;-84
2021/06/30 12:02:02;;;;;;;8.05;7.25;;;;;;;;;;4980839;28;20598;-86
2021/06/30 12:04:29;;;;;;;6.13;5.53;;;;;;;;;;4993981;28;20213;-87
2021/06/30 12:06:55;;;;;;;6.20;5.15;;;;;;;;;;4997636;28;20187;-84
2021/06/30 12:09:23;;;;;;;7.13;6.10;;;;;;;;;;4992718;28;20183;-85
2021/06/30 12:11:52;;;;;;;7.05;6.35;;;;;;;;;;4999755;28;20184;-85
2021/06/30 12:14:20;;;;;;;5.85;5.30;;;;;;;;;;5002381;28;20179;-85
2021/06/30 12:16:48;;;;;;;9.13;6.00;;;;;;;;;;5000057;28;20238;-86
2021/06/30 12:19:15;;;;;;;6.10;4.80;;;;;;;;;;4999870;28;20179;-85
2021/06/30 12:21:42;;;;;;;6.22;5.65;;;;;;;;;;5002150;28;20191;-85
2021/06/30 12:24:22;;;;;;;8.23;5.53;;;;;;;;;;5014609;28;20200;-84
2021/06/30 12:26:58;;;;;;;6.32;5.72;;;;;;;;;;5000824;28;20192;-84
2021/06/30 12:29:24;;;;;;;5.85;4.70;;;;;;;;;;4998824;28;20213;-86
2021/06/30 12:31:51;;;;;;;6.25;5.30;;;;;;;;;;5000249;28;20182;-85
2021/06/30 12:34:17;;;;;;;7.00;5.53;;;;;;;;;;4999836;28;20186;-85
2021/06/30 12:36:43;;;;;;;6.65;5.03;;;;;;;;;;5014791;28;20183;-84
2021/06/30 12:39:26;;;;;;;5.28;4.65;;;;;;;;;;4999382;28;20180;-84
2021/06/30 12:41:59;;;;;;;5.13;4.63;;;;;;;;;;5015413;28;26397;-84
2021/06/30 12:44:26;;;;;;;5.15;4.60;;;;;;;;;;4999669;28;20239;-82
2021/06/30 12:47:05;;;;;;;4.15;3.75;;;;;;;;;;5006785;28;20175;-86
2021/06/30 12:49:31;;;;;;;8.45;4.85;;;;;;;;;;5000664;28;20181;-84
2021/06/30 12:51:57;;;;;;;5.35;4.50;;;;;;;;;;5014388;28;20211;-85
2021/06/30 12:54:23;;;;;;;6.65;4.93;;;;;;;;;;4999546;28;20187;-82
2021/06/30 12:56:59;;;;;;;5.50;4.77;;;;;;;;;;5000401;28;20548;-83
2021/06/30 12:59:26;;;;;;;6.15;4.80;;;;;;;;;;4997929;28;20473;-83
2021/06/30 13:01:52;;;;;;;5.45;4.95;;;;;;;;;;5018650;28;20223;-83
2021/06/30 13:04:27;;;;;;;5.57;5.05;;;;;;;;;;5017744;28;20184;-82
2021/06/30 13:06:54;;;;;;;5.30;4.40;;;;;;;;;;5017981;28;20186;-82
2021/06/30 13:09:24;;;;;;;5.72;4.07;;;;;;;;;;5002436;28;20180;-82
2021/06/30 13:11:58;;;;;;;5.30;4.80;;;;;;;;;;5018557;28;20231;-82
2021/06/30 13:14:33;;;;;;;5.72;5.18;;;;;;;;;;4998294;28;20179;-84
2021/06/30 13:16:59;;;;;;;6.22;5.07;;;;;;;;;;5002992;28;20198;-82
2021/06/30 13:19:33;;;;;;;4.72;4.32;;;;;;;;;;5001180;28;20203;-81
2021/06/30 13:21:59;;;;;;;8.02;4.45;;;;;;;;;;5002343;28;20179;-82
2021/06/30 13:24:47;;;;;;;5.15;4.75;;;;;;;;;;5017662;28;20652;-82
2021/06/30 13:35:34;;;;;;;8.48;5.30;;;;;;;;;;5005804;28;20207;-81
2021/06/30 13:38:02;;;;;;;9.07;5.95;;;;;;;;;;5003717;28;20187;-82
2021/06/30 13:40:30;;;;;;;6.90;5.60;;;;;;;;;;5000507;28;20183;-83
2021/06/30 13:42:58;;;;;;;7.45;5.70;;;;;;;;;;5000436;28;20218;-81
2021/06/30 13:45:24;;;;;;;8.25;5.28;;;;;;;;;;5002868;28;20171;-82
2021/06/30 13:47:51;;;;;;;5.13;4.73;;;;;;;;;;5017965;28;20180;-82
2021/06/30 13:50:17;;;;;;;5.78;5.28;;;;;;;;;;5005051;28;20415;-81
2021/06/30 13:52:43;;;;;;;6.85;5.40;;;;;;;;;;5000155;28;20217;-81
2021/06/30 13:55:09;;;;;;;5.18;4.78;;;;;;;;;;5002015;28;20183;-85
2021/06/30 13:57:35;;;;;;;5.72;5.13;;;;;;;;;;5001739;28;20222;-82
2021/06/30 14:00:01;;;;;;;9.60;5.45;;;;;;;;;;5001071;28;20191;-82
2021/06/30 14:02:27;;;;;;;10.50;5.28;;;;;;;;;;5020728;28;20199;-82
2021/06/30 14:04:53;;;;;;;6.53;5.30;;;;;;;;;;5002676;28;20207;-84
2021/06/30 14:07:19;;;;;;;6.65;4.97;;;;;;;;;;4999766;28;20525;-83
2021/06/30 14:09:45;;;;;;;4.90;4.40;;;;;;;;;;5000199;28;20183;-83
2021/06/30 14:12:11;;;;;;;8.77;5.28;;;;;;;;;;5001567;28;20191;-82
2021/06/30 14:14:37;;;;;;;5.72;5.22;;;;;;;;;;5018613;28;20184;-82
2021/06/30 14:17:03;;;;;;;5.60;5.10;;;;;;;;;;5001788;28;20206;-82
2021/06/30 14:19:29;;;;;;;5.20;4.80;;;;;;;;;;5001013;28;20442;-81
2021/06/30 14:21:55;;;;;;;4.70;4.30;;;;;;;;;;5001095;28;20270;-82
2021/06/30 14:24:21;;;;;;;5.70;4.80;;;;;;;;;;5016961;28;20504;-82
2021/06/30 14:26:49;;;;;;;4.85;4.35;;;;;;;;;;5002436;28;20482;-81
2021/06/30 14:29:15;;;;;;;5.00;4.22;;;;;;;;;;5002608;28;20180;-81
2021/06/30 14:31:41;;;;;;;7.57;5.47;;;;;;;;;;5000368;28;20187;-81
2021/06/30 14:34:07;;;;;;;5.18;4.60;;;;;;;;;;5001372;28;20484;-83
2021/06/30 14:36:34;;;;;;;4.70;4.20;;;;;;;;;;4999644;28;20218;-81
2021/06/30 14:39:00;;;;;;;5.10;4.60;;;;;;;;;;5001398;28;20190;-83
2021/06/30 14:41:26;;;;;;;5.70;4.90;;;;;;;;;;5019569;28;20234;-80
2021/06/30 14:43:52;;;;;;;7.63;5.20;;;;;;;;;;5001358;28;20203;-82
2021/06/30 14:46:18;;;;;;;5.47;4.97;;;;;;;;;;5016441;28;20190;-83
2021/06/30 14:48:44;;;;;;;5.00;4.50;;;;;;;;;;4999448;28;20195;-83
2021/06/30 14:51:11;;;;;;;6.40;5.30;;;;;;;;;;5015660;28;20438;-81
2021/06/30 14:53:37;;;;;;;7.40;4.45;;;;;;;;;;5003184;28;20186;-84
2021/06/30 14:56:03;;;;;;;5.68;4.45;;;;;;;;;;5001452;28;20202;-83